createdAt,value
2023-04-27T00:00:57.003Z,3.40
2023-04-27T00:03:27.691Z,3.50
2023-04-27T00:05:57.883Z,3.50
2023-04-27T00:08:30.201Z,3.42
2023-04-27T00:11:00.216Z,3.45
2023-04-27T00:13:30.096Z,3.03
2023-04-27T00:16:03.448Z,2.88
2023-04-27T00:18:33.390Z,2.67
2023-04-27T00:21:03.380Z,2.60
2023-04-27T00:23:35.774Z,2.85
2023-04-27T00:26:05.479Z,2.80
2023-04-27T00:28:35.236Z,2.78
2023-04-27T00:31:05.041Z,2.80
2023-04-27T00:33:34.770Z,2.40
2023-04-27T00:36:05.287Z,3.15
2023-04-27T00:38:37.690Z,3.00
2023-04-27T00:41:10.664Z,3.13
2023-04-27T00:43:45.420Z,2.83
2023-04-27T00:46:16.487Z,2.95
2023-04-27T00:48:47.300Z,2.75
2023-04-27T00:51:17.329Z,2.65
2023-04-27T00:53:49.786Z,2.95
2023-04-27T00:56:19.700Z,3.05
2023-04-27T00:58:49.401Z,2.70
2023-04-27T01:01:20.867Z,2.83
2023-04-27T01:03:50.844Z,3.10
2023-04-27T01:06:20.683Z,2.75
2023-04-27T01:08:52.931Z,2.97
2023-04-27T01:11:24.146Z,3.05
2023-04-27T01:13:54.673Z,2.90
2023-04-27T01:16:24.414Z,2.92
2023-04-27T01:18:54.175Z,2.88
2023-04-27T01:21:27.355Z,2.85
2023-04-27T01:23:59.781Z,3.78
2023-04-27T01:26:29.524Z,2.58
2023-04-27T01:28:59.355Z,2.90
2023-04-27T01:31:31.383Z,3.10
2023-04-27T01:34:01.123Z,2.70
2023-04-27T01:36:31.993Z,2.88
2023-04-27T01:39:04.619Z,2.80
2023-04-27T01:41:34.306Z,2.83
2023-04-27T01:44:03.978Z,2.75
2023-04-27T01:46:33.757Z,3.28
2023-04-27T01:49:03.608Z,2.67
2023-04-27T01:51:33.732Z,3.10
2023-04-27T01:54:06.520Z,2.88
2023-04-27T01:56:37.126Z,3.00
2023-04-27T01:59:06.881Z,2.78
2023-04-27T02:01:36.863Z,2.88
2023-04-27T02:04:06.983Z,2.80
2023-04-27T02:06:36.856Z,2.97
2023-04-27T02:09:09.487Z,2.95
2023-04-27T02:11:42.780Z,3.20
2023-04-27T02:14:12.730Z,3.13
2023-04-27T02:16:42.861Z,3.17
2023-04-27T02:19:13.030Z,2.80
2023-04-27T02:21:42.904Z,3.33
2023-04-27T02:24:15.232Z,3.58
2023-04-27T02:26:45.388Z,3.47
2023-04-27T02:29:15.478Z,3.03
2023-04-27T02:31:45.878Z,3.50
2023-04-27T02:34:16.208Z,2.92
2023-04-27T02:36:45.935Z,4.03
2023-04-27T02:39:18.247Z,2.95
2023-04-27T02:41:48.099Z,3.47
2023-04-27T02:44:18.502Z,4.03
2023-04-27T02:46:48.299Z,3.40
2023-04-27T02:49:18.811Z,3.45
2023-04-27T02:51:48.481Z,3.25
2023-04-27T02:54:20.853Z,3.30
2023-04-27T02:56:50.573Z,3.42
2023-04-27T02:59:20.276Z,3.40
2023-04-27T03:01:49.969Z,3.47
2023-04-27T03:04:20.391Z,3.35
2023-04-27T03:06:51.758Z,3.72
2023-04-27T03:09:24.338Z,3.80
2023-04-27T03:11:54.000Z,3.45
2023-04-27T03:14:23.677Z,3.47
2023-04-27T03:16:56.333Z,3.28
2023-04-27T03:19:26.219Z,3.67
2023-04-27T03:21:55.956Z,3.97
2023-04-27T03:24:28.302Z,4.15
2023-04-27T03:26:58.548Z,3.33
2023-04-27T03:29:28.288Z,3.72
2023-04-27T03:31:58.142Z,3.42
2023-04-27T03:34:27.990Z,3.95
2023-04-27T03:36:57.931Z,3.45
2023-04-27T03:39:30.432Z,4.13
2023-04-27T03:42:00.419Z,3.72
2023-04-27T03:44:31.063Z,4.28
2023-04-27T03:47:01.852Z,3.70
2023-04-27T03:49:32.078Z,3.97
2023-04-27T03:52:02.112Z,4.57
2023-04-27T03:54:34.569Z,5.10
2023-04-27T03:57:04.592Z,5.55
2023-04-27T03:59:34.310Z,4.82
2023-04-27T04:02:04.460Z,4.45
2023-04-27T04:04:34.712Z,4.10
2023-04-27T04:07:06.069Z,4.53
2023-04-27T04:09:38.597Z,3.88
2023-04-27T04:12:09.387Z,4.38
2023-04-27T04:14:39.226Z,3.97
2023-04-27T04:17:08.913Z,4.30
2023-04-27T04:19:38.594Z,4.65
2023-04-27T04:22:08.334Z,4.32
2023-04-27T04:24:41.148Z,4.32
2023-04-27T04:27:10.957Z,4.10
2023-04-27T04:29:40.814Z,4.55
2023-04-27T04:32:12.454Z,3.97
2023-04-27T04:34:42.556Z,5.00
2023-04-27T04:37:12.328Z,4.15
2023-04-27T04:39:44.608Z,4.28
2023-04-27T04:42:14.339Z,4.63
2023-04-27T04:44:44.924Z,5.00
2023-04-27T04:47:14.682Z,4.47
2023-04-27T04:49:44.358Z,5.00
2023-04-27T04:52:14.368Z,4.20
2023-04-27T04:54:46.629Z,4.78
2023-04-27T04:57:16.388Z,4.50
2023-04-27T04:59:46.549Z,4.85
2023-04-27T05:02:16.243Z,5.25
2023-04-27T05:04:46.014Z,5.40
2023-04-27T05:07:20.904Z,5.38
2023-04-27T05:09:55.992Z,4.95
2023-04-27T05:12:25.887Z,5.45
2023-04-27T05:14:56.049Z,6.13
2023-04-27T05:17:25.774Z,8.50
2023-04-27T05:19:55.446Z,5.60
2023-04-27T05:22:25.155Z,5.07
2023-04-27T05:24:57.687Z,5.20
2023-04-27T05:27:27.364Z,5.50
2023-04-27T05:29:57.039Z,5.72
2023-04-27T05:32:26.752Z,5.75
2023-04-27T05:34:56.544Z,5.28
2023-04-27T05:37:26.187Z,5.07
2023-04-27T05:39:58.398Z,5.20
2023-04-27T05:42:28.088Z,4.60
2023-04-27T05:44:57.925Z,5.65
2023-04-27T05:47:27.629Z,5.35
2023-04-27T05:49:58.027Z,5.28
2023-04-27T05:52:31.311Z,5.65
2023-04-27T05:55:04.247Z,5.47
2023-04-27T05:57:34.058Z,4.82
2023-04-27T06:00:07.432Z,5.47
2023-04-27T06:02:42.207Z,5.82
2023-04-27T06:05:12.787Z,4.75
2023-04-27T06:07:44.005Z,5.57
2023-04-27T06:10:16.604Z,5.55
2023-04-27T06:12:46.725Z,5.53
2023-04-27T06:15:17.230Z,6.32
2023-04-27T06:17:46.996Z,6.18
2023-04-27T06:20:16.707Z,5.50
2023-04-27T06:22:46.993Z,6.60
2023-04-27T06:25:19.229Z,7.10
2023-04-27T06:27:48.907Z,7.50
2023-04-27T06:30:19.325Z,6.82
2023-04-27T06:32:49.011Z,6.28
2023-04-27T06:35:19.476Z,6.13
2023-04-27T06:37:49.272Z,9.48
2023-04-27T06:40:21.585Z,5.90
2023-04-27T06:42:51.285Z,5.63
2023-04-27T06:45:21.154Z,6.20
2023-04-27T06:47:50.949Z,6.65
2023-04-27T06:50:20.804Z,5.82
2023-04-27T06:52:50.464Z,6.50
2023-04-27T06:55:22.814Z,6.07
2023-04-27T06:57:52.529Z,6.47
2023-04-27T07:00:22.914Z,5.78
2023-04-27T07:02:52.786Z,5.93
2023-04-27T07:05:23.092Z,5.80
2023-04-27T07:07:52.894Z,6.40
2023-04-27T07:10:25.357Z,4.57
2023-04-27T07:12:55.015Z,4.60
2023-04-27T07:15:24.956Z,3.08
2023-04-27T07:17:54.932Z,4.10
2023-04-27T07:20:24.726Z,3.05
2023-04-27T07:22:54.397Z,2.80
2023-04-27T07:25:26.695Z,2.80
2023-04-27T07:27:57.110Z,2.53
2023-04-27T07:30:26.853Z,3.08
2023-04-27T07:32:56.860Z,3.58
2023-04-27T07:35:26.597Z,3.53
2023-04-27T07:37:56.790Z,2.95
2023-04-27T07:40:29.064Z,3.22
2023-04-27T07:42:58.943Z,2.42
2023-04-27T07:45:32.490Z,2.40
2023-04-27T07:48:04.632Z,3.30
2023-04-27T07:50:34.885Z,2.50
2023-04-27T07:53:04.607Z,2.05
2023-04-27T07:55:36.952Z,2.60
2023-04-27T07:58:07.460Z,2.45
2023-04-27T08:00:37.560Z,1.92
2023-04-27T08:03:08.287Z,2.50
2023-04-27T08:05:38.568Z,2.40
2023-04-27T08:08:08.878Z,2.28
2023-04-27T08:10:43.113Z,2.03
2023-04-27T08:13:12.820Z,1.90
2023-04-27T08:15:42.481Z,2.65
2023-04-27T08:18:12.232Z,2.03
2023-04-27T08:20:41.942Z,1.65
2023-04-27T08:23:11.694Z,1.65
2023-04-27T08:25:44.027Z,1.63
2023-04-27T08:28:13.723Z,2.08
2023-04-27T08:30:44.893Z,1.95
2023-04-27T08:33:14.626Z,2.05
2023-04-27T08:35:44.376Z,2.30
2023-04-27T08:38:14.162Z,2.47
2023-04-27T08:40:49.339Z,2.30
2023-04-27T08:43:19.203Z,2.10
2023-04-27T08:45:53.137Z,1.95
2023-04-27T08:48:23.109Z,1.80
2023-04-27T08:50:54.121Z,1.60
2023-04-27T08:53:24.324Z,1.73
2023-04-27T08:55:57.894Z,1.83
2023-04-27T08:58:39.559Z,1.60
2023-04-27T09:01:10.029Z,1.75
2023-04-27T09:03:41.343Z,1.67
2023-04-27T09:06:11.656Z,1.33
2023-04-27T09:08:46.007Z,1.50
2023-04-27T09:11:19.307Z,1.25
2023-04-27T09:13:49.020Z,1.63
2023-04-27T09:16:18.752Z,1.30
2023-04-27T09:18:48.625Z,1.23
2023-04-27T09:21:26.115Z,1.58
2023-04-27T09:23:56.438Z,1.55
2023-04-27T09:26:31.981Z,1.50
2023-04-27T09:29:01.649Z,1.65
2023-04-27T09:31:34.941Z,1.63
2023-04-27T09:34:05.682Z,1.90
2023-04-27T09:36:35.539Z,1.63
2023-04-27T09:39:07.261Z,1.40
2023-04-27T09:41:42.418Z,1.30
2023-04-27T09:44:12.103Z,1.55
2023-04-27T09:46:44.038Z,1.58
2023-04-27T09:49:15.746Z,1.40
2023-04-27T09:51:45.525Z,1.25
2023-04-27T09:54:17.314Z,1.13
2023-04-27T09:56:58.380Z,1.05
2023-04-27T09:59:44.145Z,1.77
2023-04-27T10:02:25.125Z,1.60
2023-04-27T10:05:16.236Z,2.05
2023-04-27T10:07:48.884Z,1.23
2023-04-27T10:10:20.627Z,1.20
2023-04-27T10:13:04.103Z,1.10
2023-04-27T10:15:33.799Z,1.60
2023-04-27T10:18:07.780Z,1.20
2023-04-27T10:20:40.770Z,1.40
2023-04-27T10:23:10.686Z,1.58
2023-04-27T10:25:41.735Z,1.33
2023-04-27T10:28:20.768Z,1.52
2023-04-27T10:30:52.106Z,1.45
2023-04-27T10:33:25.091Z,1.50
2023-04-27T10:36:00.528Z,1.42
2023-04-27T10:38:33.214Z,1.55
2023-04-27T10:41:05.724Z,1.00
2023-04-27T10:43:39.192Z,1.15
2023-04-27T10:46:14.400Z,0.98
2023-04-27T10:48:45.180Z,0.93
2023-04-27T10:51:18.613Z,1.10
2023-04-27T10:53:48.369Z,0.98
2023-04-27T10:56:18.148Z,1.60
2023-04-27T10:58:50.457Z,1.30
2023-04-27T11:01:27.169Z,1.67
2023-04-27T11:04:00.891Z,1.42
2023-04-27T11:06:32.317Z,1.33
2023-04-27T11:09:02.995Z,1.45
2023-04-27T11:11:32.787Z,1.00
2023-04-27T11:14:05.138Z,1.02
2023-04-27T11:16:35.152Z,0.90
2023-04-27T11:19:08.271Z,1.10
2023-04-27T11:21:37.990Z,1.20
2023-04-27T11:24:08.902Z,1.02
2023-04-27T11:26:38.922Z,1.10
2023-04-27T11:29:14.497Z,1.33
2023-04-27T11:31:47.813Z,1.15
2023-04-27T11:34:19.681Z,1.40
2023-04-27T11:37:10.748Z,1.60
2023-04-27T11:39:48.769Z,1.40
2023-04-27T11:42:20.811Z,1.20
2023-04-27T11:45:01.416Z,1.40
2023-04-27T11:47:32.869Z,1.58
2023-04-27T11:50:05.781Z,1.75
2023-04-27T11:52:36.768Z,1.63
2023-04-27T11:55:09.189Z,1.67
2023-04-27T11:57:39.458Z,1.30
2023-04-27T12:00:14.748Z,1.85
2023-04-27T12:02:46.571Z,1.50
2023-04-27T12:05:17.460Z,1.75
2023-04-27T12:07:47.263Z,1.92
2023-04-27T12:10:17.221Z,1.35
2023-04-27T12:12:47.087Z,1.50
2023-04-27T12:15:19.507Z,2.50
2023-04-27T12:17:49.302Z,4.30
2023-04-27T12:20:19.299Z,1.30
2023-04-27T12:22:49.055Z,1.30
2023-04-27T12:25:19.886Z,1.55
2023-04-27T12:27:50.327Z,1.30
2023-04-27T12:30:24.077Z,1.35
2023-04-27T12:32:53.900Z,1.40
2023-04-27T12:35:24.030Z,1.13
2023-04-27T12:37:53.917Z,1.30
2023-04-27T12:40:23.668Z,1.50
2023-04-27T12:42:53.356Z,2.42
2023-04-27T12:45:25.663Z,1.40
2023-04-27T12:48:03.529Z,1.63
2023-04-27T12:50:34.511Z,1.35
2023-04-27T12:53:05.056Z,1.15
2023-04-27T12:55:34.897Z,1.20
2023-04-27T12:58:05.145Z,1.42
2023-04-27T13:00:37.440Z,1.50
2023-04-27T13:03:07.902Z,1.83
2023-04-27T13:05:38.431Z,1.52
2023-04-27T13:08:08.470Z,1.58
2023-04-27T13:10:38.203Z,1.75
2023-04-27T13:13:08.005Z,1.73
2023-04-27T13:15:40.386Z,1.67
2023-04-27T13:18:10.528Z,1.42
2023-04-27T13:20:40.303Z,1.50
2023-04-27T13:23:10.091Z,1.17
2023-04-27T13:25:39.813Z,1.50
2023-04-27T13:28:09.496Z,1.30
2023-04-27T13:30:41.749Z,1.25
2023-04-27T13:33:22.555Z,1.48
2023-04-27T13:35:53.819Z,1.27
2023-04-27T13:38:23.674Z,1.50
2023-04-27T13:40:53.387Z,1.92
2023-04-27T13:43:23.120Z,1.77
2023-04-27T13:45:56.473Z,1.52
2023-04-27T13:48:27.396Z,1.65
2023-04-27T13:50:58.085Z,1.33
2023-04-27T13:53:28.353Z,1.42
2023-04-27T13:55:59.062Z,1.50
2023-04-27T13:58:30.896Z,1.75
2023-04-27T14:01:03.338Z,1.90
2023-04-27T14:03:34.066Z,1.60
2023-04-27T14:06:04.311Z,1.80
2023-04-27T14:08:34.411Z,1.55
2023-04-27T14:11:04.168Z,1.50
2023-04-27T14:13:33.874Z,1.38
2023-04-27T14:16:06.769Z,1.65
2023-04-27T14:18:36.607Z,1.60
2023-04-27T14:21:07.349Z,1.77
2023-04-27T14:23:38.171Z,2.67
2023-04-27T14:26:09.308Z,1.45
2023-04-27T14:28:39.306Z,1.65
2023-04-27T14:31:11.600Z,1.52
2023-04-27T14:33:41.331Z,1.38
2023-04-27T14:36:11.694Z,1.27
2023-04-27T14:38:41.509Z,1.70
2023-04-27T14:41:11.231Z,1.60
2023-04-27T14:43:40.940Z,2.08
2023-04-27T14:48:50.247Z,1.40
2023-04-27T14:51:20.454Z,1.98
2023-04-27T14:53:50.179Z,1.52
2023-04-27T14:56:20.078Z,1.50
2023-04-27T14:58:49.818Z,1.85
2023-04-27T15:01:22.209Z,1.50
2023-04-27T15:03:54.491Z,1.50
2023-04-27T15:06:24.686Z,1.60
2023-04-27T15:08:54.373Z,1.60
2023-04-27T15:11:24.745Z,2.85
2023-04-27T15:13:54.461Z,1.85
2023-04-27T15:16:27.511Z,1.50
2023-04-27T15:18:57.225Z,2.13
2023-04-27T15:21:27.122Z,2.20
2023-04-27T15:23:56.785Z,1.83
2023-04-27T15:26:26.569Z,1.95
2023-04-27T15:40:10.565Z,1.48
2023-04-27T15:42:40.489Z,2.08
2023-04-27T15:45:11.955Z,1.63
2023-04-27T15:47:41.789Z,2.28
2023-04-27T15:50:11.862Z,3.83
2023-04-27T15:52:41.640Z,4.80
2023-04-27T15:55:14.423Z,2.10
2023-04-27T15:57:44.177Z,2.00
2023-04-27T16:00:16.547Z,1.85
2023-04-27T16:02:46.650Z,1.83
2023-04-27T16:05:17.541Z,1.95
2023-04-27T16:07:48.133Z,5.40
2023-04-27T16:10:20.467Z,7.20
2023-04-27T16:12:50.480Z,2.03
2023-04-27T16:15:20.802Z,3.53
2023-04-27T16:17:50.651Z,3.45
2023-04-27T16:20:20.314Z,4.32
2023-04-27T16:22:50.036Z,1.95
2023-04-27T16:25:22.471Z,1.58
2023-04-27T16:27:52.393Z,1.95
2023-04-27T16:30:22.609Z,2.80
2023-04-27T16:32:52.584Z,1.80
2023-04-27T16:35:22.485Z,5.72
2023-04-27T16:37:53.959Z,3.83
2023-04-27T16:40:26.265Z,2.45
2023-04-27T16:42:56.226Z,3.30
2023-04-27T16:45:25.927Z,1.92
2023-04-27T16:47:55.906Z,1.75
2023-04-27T16:50:25.742Z,1.60
2023-04-27T16:52:55.561Z,1.40
2023-04-27T16:55:28.660Z,2.22
2023-04-27T16:57:58.719Z,1.88
2023-04-27T17:00:28.662Z,2.17
2023-04-27T17:02:58.688Z,1.70
2023-04-27T17:05:28.725Z,1.77
2023-04-27T17:07:58.845Z,1.73
2023-04-27T17:10:32.477Z,1.88
2023-04-27T17:13:02.284Z,1.35
2023-04-27T17:15:32.394Z,1.45
2023-04-27T17:18:05.170Z,1.40
2023-04-27T17:20:35.190Z,1.50
2023-04-27T17:23:05.279Z,1.60
2023-04-27T17:25:37.522Z,1.55
2023-04-27T17:28:07.390Z,1.42
2023-04-27T17:30:37.586Z,1.33
2023-04-27T17:33:07.384Z,1.52
2023-04-27T17:35:37.110Z,1.58
2023-04-27T17:38:06.866Z,1.63
2023-04-27T17:40:39.115Z,1.30
2023-04-27T17:43:08.846Z,1.33
2023-04-27T17:45:38.858Z,1.42
2023-04-27T17:48:09.484Z,1.42
2023-04-27T17:50:41.257Z,1.60
2023-04-27T17:53:10.977Z,1.25
2023-04-27T17:55:45.589Z,1.70
2023-04-27T17:58:15.710Z,1.92
2023-04-27T18:00:45.714Z,1.17
2023-04-27T18:03:15.610Z,1.50
2023-04-27T18:05:45.693Z,1.30
2023-04-27T18:08:15.584Z,1.60
2023-04-27T18:10:47.837Z,1.63
2023-04-27T18:13:17.510Z,1.45
2023-04-27T18:15:47.203Z,1.90
2023-04-27T18:18:23.210Z,1.58
2023-04-27T18:20:56.406Z,1.70
2023-04-27T18:23:26.393Z,1.75
2023-04-27T18:26:01.072Z,1.80
2023-04-27T18:28:30.798Z,1.75
2023-04-27T18:31:00.901Z,1.70
2023-04-27T18:33:30.766Z,2.40
2023-04-27T18:36:00.907Z,2.75
2023-04-27T18:38:31.307Z,2.33
2023-04-27T18:41:03.587Z,1.85
2023-04-27T18:43:33.333Z,1.95
2023-04-27T18:46:05.050Z,2.67
2023-04-27T18:48:34.890Z,2.22
2023-04-27T18:51:04.659Z,1.90
2023-04-27T18:53:34.446Z,1.83
2023-04-27T18:56:08.847Z,2.05
2023-04-27T18:58:39.184Z,1.80
2023-04-27T19:01:09.580Z,1.50
2023-04-27T19:03:39.493Z,1.80
2023-04-27T19:06:09.390Z,1.90
2023-04-27T19:08:39.116Z,1.50
2023-04-27T19:11:11.421Z,1.85
2023-04-27T19:13:45.334Z,1.55
2023-04-27T19:16:15.554Z,1.95
2023-04-27T19:18:45.601Z,1.83
2023-04-27T19:21:15.337Z,1.90
2023-04-27T19:23:45.322Z,2.25
2023-04-27T19:26:17.789Z,2.10
2023-04-27T19:28:48.023Z,1.80
2023-04-27T19:31:17.896Z,2.08
2023-04-27T19:36:24.830Z,1.52
2023-04-27T19:38:55.317Z,2.05
2023-04-27T19:41:28.519Z,2.00
2023-04-27T19:43:58.484Z,2.08
2023-04-27T19:46:28.247Z,1.80
2023-04-27T19:48:58.096Z,2.40
2023-04-27T19:51:27.957Z,2.50
2023-04-27T19:53:57.612Z,2.70
2023-04-27T19:56:29.881Z,2.70
2023-04-27T19:58:59.600Z,2.42
2023-04-27T20:01:29.384Z,2.50
2023-04-27T20:03:59.350Z,1.90
2023-04-27T20:06:29.371Z,1.92
2023-04-27T20:08:59.122Z,2.00
2023-04-27T20:11:31.510Z,2.55
2023-04-27T20:14:01.347Z,2.03
2023-04-27T20:16:31.481Z,2.08
2023-04-27T20:19:01.237Z,2.30
2023-04-27T20:21:31.049Z,2.13
2023-04-27T20:24:00.719Z,2.03
2023-04-27T20:26:32.945Z,2.17
2023-04-27T20:29:02.598Z,2.20
2023-04-27T20:31:32.487Z,2.00
2023-04-27T20:34:02.306Z,2.20
2023-04-27T20:36:32.093Z,2.08
2023-04-27T20:39:05.626Z,2.42
2023-04-27T20:41:38.668Z,2.10
2023-04-27T20:44:08.462Z,1.90
2023-04-27T20:46:38.324Z,2.00
2023-04-27T20:49:08.692Z,2.10
2023-04-27T20:51:38.507Z,2.05
2023-04-27T20:54:08.717Z,2.05
2023-04-27T20:56:41.130Z,2.08
2023-04-27T20:59:10.779Z,2.50
2023-04-27T21:01:40.464Z,1.75
2023-04-27T21:04:10.270Z,1.98
2023-04-27T21:06:42.868Z,2.00
2023-04-27T21:09:12.634Z,2.15
2023-04-27T21:11:44.938Z,2.65
2023-04-27T21:14:14.746Z,2.22
2023-04-27T21:16:44.736Z,2.60
2023-04-27T21:19:16.712Z,2.22
2023-04-27T21:21:46.463Z,2.20
2023-04-27T21:24:16.164Z,2.58
2023-04-27T21:26:48.438Z,2.42
2023-04-27T21:29:18.099Z,2.65
2023-04-27T21:31:47.787Z,2.53
2023-04-27T21:34:17.546Z,2.80
2023-04-27T21:36:47.471Z,2.30
2023-04-27T21:39:17.155Z,2.65
2023-04-27T21:41:49.528Z,2.80
2023-04-27T21:44:19.184Z,2.53
2023-04-27T21:46:49.022Z,2.65
2023-04-27T21:49:18.826Z,2.70
2023-04-27T21:51:48.640Z,2.80
2023-04-27T21:54:18.318Z,2.97
2023-04-27T21:56:50.590Z,2.50
2023-04-27T21:59:20.718Z,2.78
2023-04-27T22:01:50.656Z,2.97
2023-04-27T22:04:20.684Z,3.05
2023-04-27T22:06:50.821Z,2.90
2023-04-27T22:09:20.502Z,2.85
2023-04-27T22:11:52.757Z,3.00
2023-04-27T22:14:22.488Z,2.88
2023-04-27T22:16:52.203Z,2.60
2023-04-27T22:19:22.055Z,2.78
2023-04-27T22:21:51.716Z,3.10
2023-04-27T22:24:21.364Z,3.00
2023-04-27T22:26:53.677Z,3.00
2023-04-27T22:29:23.339Z,3.03
2023-04-27T22:31:54.020Z,3.17
2023-04-27T22:34:24.293Z,3.00
2023-04-27T22:36:54.113Z,3.00
2023-04-27T22:39:24.290Z,2.88
2023-04-27T22:41:56.543Z,2.95
2023-04-27T22:44:26.216Z,3.03
2023-04-27T22:46:56.397Z,2.92
2023-04-27T22:49:26.151Z,2.70
2023-04-27T22:51:57.806Z,2.85
2023-04-27T22:54:27.534Z,2.92
2023-04-27T22:57:00.524Z,2.90
2023-04-27T22:59:30.333Z,2.80
2023-04-27T23:02:00.046Z,3.00
2023-04-27T23:04:30.167Z,3.00
2023-04-27T23:06:59.949Z,2.88
2023-04-27T23:09:29.839Z,3.85
2023-04-27T23:12:02.086Z,2.97
2023-04-27T23:14:31.751Z,2.53
2023-04-27T23:17:02.021Z,2.92
2023-04-27T23:19:32.126Z,2.67
2023-04-27T23:22:03.448Z,2.90
2023-04-27T23:24:33.079Z,2.72
2023-04-27T23:27:05.319Z,3.08
2023-04-27T23:29:35.064Z,3.03
2023-04-27T23:32:05.518Z,3.28
2023-04-27T23:34:35.177Z,3.00
2023-04-27T23:37:04.873Z,3.17
2023-04-27T23:39:34.520Z,2.97
2023-04-27T23:42:07.061Z,2.88
2023-04-27T23:44:36.820Z,3.15
2023-04-27T23:47:06.521Z,2.65
2023-04-27T23:49:36.262Z,2.90
2023-04-27T23:52:06.167Z,2.63
2023-04-27T23:54:36.096Z,2.22
2023-04-27T23:57:08.317Z,2.78
2023-04-27T23:59:39.179Z,2.75
